createdAt,value
2018-11-21T00:04:02.102Z,83.19
2018-11-21T00:08:05.870Z,83.18
2018-11-21T00:12:09.502Z,83.24
2018-11-21T00:16:13.029Z,83.25
2018-11-21T00:20:16.737Z,83.32
2018-11-21T00:24:20.481Z,83.31
2018-11-21T00:28:24.303Z,83.15
2018-11-21T00:32:28.797Z,83.09
2018-11-21T00:36:32.570Z,83.07
2018-11-21T00:40:36.213Z,82.91
2018-11-21T00:44:39.845Z,83.00
2018-11-21T00:48:43.484Z,83.00
2018-11-21T00:52:47.123Z,83.03
2018-11-21T00:56:50.703Z,83.16
2018-11-21T01:00:54.329Z,83.14
2018-11-21T01:04:57.961Z,82.97
2018-11-21T01:09:01.668Z,82.94
2018-11-21T01:13:05.419Z,82.85
2018-11-21T01:17:09.022Z,82.90
2018-11-21T01:21:12.959Z,82.86
2018-11-21T01:25:16.685Z,82.82
2018-11-21T01:29:20.636Z,82.82
2018-11-21T01:33:24.388Z,82.87
2018-11-21T01:37:28.053Z,82.97
2018-11-21T01:41:31.918Z,83.17
2018-11-21T01:45:35.713Z,83.28
2018-11-21T01:49:39.655Z,83.36
2018-11-21T01:53:43.271Z,83.48
2018-11-21T01:57:46.884Z,83.60
2018-11-21T02:01:50.514Z,83.62
2018-11-21T02:05:54.110Z,83.55
2018-11-21T02:09:57.750Z,83.54
2018-11-21T02:14:01.338Z,83.51
2018-11-21T02:18:05.208Z,83.50
2018-11-21T02:22:08.974Z,83.39
2018-11-21T02:26:12.674Z,83.38
2018-11-21T02:30:16.318Z,83.55
2018-11-21T02:34:19.978Z,83.52
2018-11-21T02:38:23.571Z,83.51
2018-11-21T02:42:27.222Z,83.55
2018-11-21T02:46:30.836Z,83.52
2018-11-21T02:50:34.456Z,83.63
2018-11-21T02:54:38.056Z,83.74
2018-11-21T02:58:41.756Z,83.79
2018-11-21T03:02:45.411Z,83.69
2018-11-21T03:06:49.131Z,83.71
2018-11-21T03:10:52.776Z,83.69
2018-11-21T03:14:56.395Z,83.72
2018-11-21T03:19:00.854Z,83.65
2018-11-21T03:23:04.488Z,83.57
2018-11-21T03:27:08.161Z,83.64
2018-11-21T03:31:11.853Z,83.68
2018-11-21T03:35:15.476Z,83.68
2018-11-21T03:39:20.512Z,83.58
2018-11-21T03:43:24.219Z,83.59
2018-11-21T03:47:27.840Z,83.65
2018-11-21T03:51:31.467Z,83.67
2018-11-21T03:55:35.115Z,83.70
2018-11-21T03:59:38.737Z,83.89
2018-11-21T04:03:42.717Z,83.72
2018-11-21T04:07:46.387Z,83.80
2018-11-21T04:11:50.014Z,83.79
2018-11-21T04:15:53.645Z,83.85
2018-11-21T04:19:57.289Z,84.03
2018-11-21T04:24:00.943Z,83.97
2018-11-21T04:28:04.560Z,83.87
2018-11-21T04:32:08.190Z,84.09
2018-11-21T04:36:12.694Z,84.12
2018-11-21T04:40:16.276Z,83.96
2018-11-21T04:44:19.936Z,83.98
2018-11-21T04:48:23.528Z,84.16
2018-11-21T04:52:27.193Z,84.08
2018-11-21T04:56:30.787Z,84.06
2018-11-21T05:00:34.408Z,84.08
2018-11-21T05:04:38.084Z,84.07
2018-11-21T05:08:41.657Z,84.09
2018-11-21T05:12:45.321Z,84.12
2018-11-21T05:16:48.985Z,84.10
2018-11-21T05:20:52.619Z,84.04
2018-11-21T05:24:56.413Z,83.98
2018-11-21T05:29:00.108Z,83.96
2018-11-21T05:33:03.832Z,83.97
2018-11-21T05:37:07.449Z,83.98
2018-11-21T05:41:11.438Z,84.04
2018-11-21T05:45:15.228Z,84.03
2018-11-21T05:49:18.861Z,83.97
2018-11-21T05:53:23.799Z,83.96
2018-11-21T05:57:27.365Z,83.86
2018-11-21T06:01:31.357Z,83.67
2018-11-21T06:05:34.993Z,83.68
2018-11-21T06:09:38.846Z,83.71
2018-11-21T06:13:42.333Z,83.70
2018-11-21T06:17:48.325Z,83.68
2018-11-21T06:21:49.598Z,83.75
2018-11-21T06:25:53.411Z,83.85
2018-11-21T06:29:57.113Z,83.93
2018-11-21T06:34:00.743Z,83.89
2018-11-21T06:38:04.388Z,83.82
2018-11-21T06:42:08.041Z,83.71
2018-11-21T06:46:11.707Z,83.68
2018-11-21T06:50:15.514Z,83.69
2018-11-21T06:54:19.169Z,83.68
2018-11-21T06:58:22.807Z,83.66
2018-11-21T07:02:26.454Z,83.69
2018-11-21T07:06:30.064Z,83.58
2018-11-21T07:10:33.722Z,83.68
2018-11-21T07:14:37.307Z,83.72
2018-11-21T07:18:41.322Z,83.77
2018-11-21T07:22:44.937Z,83.72
2018-11-21T07:26:50.374Z,83.96
2018-11-21T07:30:53.907Z,83.99
2018-11-21T07:34:58.003Z,83.92
2018-11-21T07:39:02.483Z,83.84
2018-11-21T07:43:06.266Z,83.82
2018-11-21T07:47:09.928Z,83.74
2018-11-21T07:51:13.601Z,83.75
2018-11-21T07:55:17.218Z,83.80
2018-11-21T07:59:20.899Z,83.69
2018-11-21T08:03:25.734Z,83.76
2018-11-21T08:07:40.721Z,83.85
2018-11-21T08:12:21.695Z,83.92
2018-11-21T08:16:59.394Z,83.91
2018-11-21T08:21:21.989Z,83.85
2018-11-21T08:25:50.698Z,83.77
2018-11-21T08:29:54.365Z,83.71
2018-11-21T08:33:58.007Z,83.59
2018-11-21T08:38:01.637Z,83.49
2018-11-21T08:42:05.535Z,83.43
2018-11-21T08:46:10.281Z,83.56
2018-11-21T08:50:13.890Z,83.70
2018-11-21T08:54:17.565Z,83.78
2018-11-21T08:58:21.340Z,84.14
2018-11-21T09:02:25.072Z,84.19
2018-11-21T09:06:28.976Z,84.01
2018-11-21T09:14:36.218Z,83.96
2018-11-21T09:18:39.824Z,84.07
2018-11-21T09:22:43.421Z,84.02
2018-11-21T09:26:47.376Z,83.99
2018-11-21T09:30:51.020Z,83.95
2018-11-21T09:34:54.638Z,83.93
2018-11-21T09:38:58.262Z,83.85
2018-11-21T09:43:01.923Z,83.87
2018-11-21T09:47:05.535Z,83.94
2018-11-21T09:51:09.178Z,84.02
2018-11-21T09:55:13.005Z,84.01
2018-11-21T09:59:16.609Z,84.21
2018-11-21T10:03:22.400Z,84.13
2018-11-21T10:07:26.050Z,84.01
2018-11-21T10:11:30.451Z,84.09
2018-11-21T10:15:34.094Z,83.99
2018-11-21T10:19:37.711Z,84.09
2018-11-21T10:23:41.639Z,84.02
2018-11-21T10:27:45.885Z,84.02
2018-11-21T10:31:49.507Z,83.98
2018-11-21T10:35:53.203Z,83.98
2018-11-21T10:39:56.891Z,83.97
2018-11-21T10:44:00.473Z,83.80
2018-11-21T10:48:04.470Z,83.69
2018-11-21T10:52:08.125Z,83.78
2018-11-21T10:56:11.759Z,83.96
2018-11-21T11:00:34.416Z,83.87
2018-11-21T11:04:59.652Z,83.86
2018-11-21T11:09:24.863Z,83.58
2018-11-21T11:13:46.422Z,83.64
2018-11-21T11:18:07.642Z,83.63
2018-11-21T11:22:28.710Z,83.47
2018-11-21T11:26:49.762Z,83.35
2018-11-21T11:31:27.307Z,83.37
2018-11-21T11:36:05.172Z,83.24
2018-11-21T11:40:31.694Z,83.28
2018-11-21T11:45:03.077Z,83.33
2018-11-21T11:49:24.308Z,83.19
2018-11-21T11:53:45.319Z,83.14
2018-11-21T11:58:19.813Z,83.17
2018-11-21T12:02:34.743Z,83.04
2018-11-21T12:06:56.057Z,83.01
2018-11-21T12:11:17.075Z,82.99
2018-11-21T12:15:31.468Z,82.97
2018-11-21T12:19:56.890Z,82.93
2018-11-21T12:24:18.200Z,82.92
2018-11-21T12:28:39.467Z,82.67
2018-11-21T12:33:20.450Z,82.54
2018-11-21T12:37:41.718Z,82.39
2018-11-21T12:42:06.879Z,82.40
2018-11-21T12:46:41.622Z,82.40
2018-11-21T12:51:22.651Z,82.31
2018-11-21T12:55:43.705Z,82.09
2018-11-21T13:00:21.452Z,81.78
2018-11-21T13:04:46.659Z,81.65
2018-11-21T13:09:08.679Z,81.98
2018-11-21T13:13:30.192Z,81.73
2018-11-21T13:17:51.458Z,81.65
2018-11-21T13:22:20.233Z,81.56
2018-11-21T13:26:42.900Z,81.74
2018-11-21T13:31:23.530Z,81.64
2018-11-21T13:35:55.197Z,81.61
2018-11-21T13:40:20.542Z,81.53
2018-11-21T13:44:52.449Z,81.41
2018-11-21T13:49:13.926Z,81.38
2018-11-21T13:53:42.397Z,81.48
2018-11-21T13:57:46.284Z,81.55
2018-11-21T14:01:50.383Z,81.67
2018-11-21T14:05:54.039Z,81.75
2018-11-21T14:09:57.698Z,81.74
2018-11-21T14:14:01.554Z,81.86
2018-11-21T14:18:04.942Z,82.05
2018-11-21T14:22:08.565Z,81.89
2018-11-21T14:26:12.316Z,81.92
2018-11-21T14:30:17.001Z,81.93
2018-11-21T14:34:20.684Z,82.10
2018-11-21T14:38:24.352Z,82.08
2018-11-21T14:42:27.992Z,82.12
2018-11-21T14:46:31.653Z,82.27
2018-11-21T14:50:39.183Z,82.23
2018-11-21T14:54:39.834Z,82.30
2018-11-21T14:58:43.572Z,82.15
2018-11-21T15:02:47.240Z,82.21
2018-11-21T15:06:50.860Z,82.32
2018-11-21T15:10:54.634Z,82.42
2018-11-21T15:14:58.199Z,82.40
2018-11-21T15:19:01.887Z,82.38
2018-11-21T15:23:06.234Z,82.45
2018-11-21T15:27:10.163Z,82.34
2018-11-21T15:31:13.823Z,82.69
2018-11-21T15:35:18.098Z,82.63
2018-11-21T15:39:21.819Z,82.34
2018-11-21T15:43:31.617Z,82.14
2018-11-21T15:47:35.288Z,82.05
2018-11-21T15:51:39.928Z,81.86
2018-11-21T15:55:43.734Z,81.78
2018-11-21T15:59:47.370Z,81.80
2018-11-21T16:03:51.019Z,82.03
2018-11-21T16:07:54.632Z,82.02
2018-11-21T16:11:58.300Z,82.04
2018-11-21T16:16:02.429Z,82.15
2018-11-21T16:20:07.262Z,82.21
2018-11-21T16:24:11.011Z,82.23
2018-11-21T16:28:15.252Z,82.06
2018-11-21T16:32:18.836Z,81.76
2018-11-21T16:36:27.114Z,81.83
2018-11-21T16:40:27.710Z,81.67
2018-11-21T16:44:31.334Z,81.41
2018-11-21T16:48:34.961Z,81.29
2018-11-21T16:52:38.579Z,81.15
2018-11-21T16:56:42.228Z,81.13
2018-11-21T17:00:45.832Z,81.09
2018-11-21T17:04:49.481Z,81.11
2018-11-21T17:08:53.125Z,81.06
2018-11-21T17:12:56.782Z,80.95
2018-11-21T17:17:00.422Z,81.03
2018-11-21T17:21:04.070Z,81.10
2018-11-21T17:25:10.532Z,81.21
2018-11-21T17:29:14.190Z,81.28
2018-11-21T17:33:18.138Z,81.19
2018-11-21T17:37:21.737Z,81.09
2018-11-21T17:41:25.501Z,81.14
2018-11-21T17:45:29.366Z,81.50
2018-11-21T17:49:33.226Z,81.67
2018-11-21T17:53:46.678Z,81.59
2018-11-21T17:57:50.463Z,81.33
2018-11-21T18:01:54.391Z,81.43
2018-11-21T18:05:58.145Z,81.35
2018-11-21T18:10:01.938Z,81.37
2018-11-21T18:14:06.037Z,81.23
2018-11-21T18:18:09.629Z,81.25
2018-11-21T18:22:13.326Z,81.33
2018-11-21T18:26:18.478Z,81.39
2018-11-21T18:30:23.959Z,81.30
2018-11-21T18:34:27.544Z,81.18
2018-11-21T18:38:33.652Z,81.01
2018-11-21T18:42:37.321Z,80.93
2018-11-21T18:46:40.943Z,80.94
2018-11-21T18:50:44.630Z,81.00
2018-11-21T18:54:48.325Z,81.06
2018-11-21T18:59:19.343Z,81.02
2018-11-21T19:03:22.980Z,81.04
2018-11-21T19:07:26.660Z,80.93
2018-11-21T19:11:30.925Z,80.83
2018-11-21T19:15:34.540Z,80.87
2018-11-21T19:19:38.185Z,80.82
2018-11-21T19:23:41.987Z,80.44
2018-11-21T19:27:45.701Z,80.56
2018-11-21T19:31:49.513Z,80.64
2018-11-21T19:35:53.390Z,80.65
2018-11-21T19:39:57.178Z,80.40
2018-11-21T19:44:00.886Z,79.95
2018-11-21T19:48:04.937Z,79.52
2018-11-21T19:52:08.725Z,79.15
2018-11-21T19:56:12.329Z,79.24
2018-11-21T20:00:19.702Z,78.91
2018-11-21T20:04:23.452Z,78.95
2018-11-21T20:08:27.155Z,79.19
2018-11-21T20:12:30.935Z,79.03
2018-11-21T20:16:34.648Z,78.98
2018-11-21T20:20:38.504Z,79.04
2018-11-21T20:24:42.834Z,79.10
2018-11-21T20:28:46.442Z,79.21
2018-11-21T20:32:50.125Z,79.14
2018-11-21T20:36:53.820Z,79.17
2018-11-21T20:40:57.562Z,79.15
2018-11-21T20:45:01.267Z,78.95
2018-11-21T20:49:07.849Z,78.78
2018-11-21T20:53:08.822Z,78.48
2018-11-21T20:57:12.577Z,78.38
2018-11-21T21:01:16.299Z,78.29
2018-11-21T21:05:21.489Z,78.33
2018-11-21T21:09:25.170Z,78.26
2018-11-21T21:13:28.944Z,78.23
2018-11-21T21:17:32.505Z,78.36
2018-11-21T21:21:36.280Z,78.41
2018-11-21T21:25:39.936Z,78.31
2018-11-21T21:29:46.410Z,78.24
2018-11-21T21:33:50.232Z,78.31
2018-11-21T21:37:53.882Z,78.46
2018-11-21T21:41:57.513Z,78.56
2018-11-21T21:46:02.100Z,78.59
2018-11-21T21:50:07.482Z,78.64
2018-11-21T21:54:11.114Z,78.81
2018-11-21T21:58:14.888Z,78.93
2018-11-21T22:02:18.550Z,79.02
2018-11-21T22:06:22.284Z,79.14
2018-11-21T22:10:26.009Z,79.07
2018-11-21T22:14:29.650Z,79.11
2018-11-21T22:18:33.313Z,79.01
2018-11-21T22:22:36.950Z,79.15
2018-11-21T22:26:40.534Z,79.38
2018-11-21T22:30:44.251Z,79.53
2018-11-21T22:34:47.942Z,79.51
2018-11-21T22:38:51.632Z,79.36
2018-11-21T22:42:55.307Z,79.35
2018-11-21T22:46:59.018Z,79.44
2018-11-21T22:51:02.746Z,79.62
2018-11-21T22:55:07.099Z,79.74
2018-11-21T22:59:11.129Z,79.62
2018-11-21T23:03:15.849Z,79.64
2018-11-21T23:07:19.588Z,79.54
2018-11-21T23:11:23.262Z,79.46
2018-11-21T23:15:26.928Z,79.51
2018-11-21T23:19:30.609Z,79.46
2018-11-21T23:23:34.294Z,79.55
2018-11-21T23:27:38.312Z,79.71
2018-11-21T23:31:42.110Z,79.62
2018-11-21T23:35:45.782Z,79.59
2018-11-21T23:39:49.356Z,79.71
2018-11-21T23:43:53.030Z,79.78
2018-11-21T23:47:56.796Z,79.88
2018-11-21T23:52:00.475Z,79.88
2018-11-21T23:56:04.106Z,79.84
